sensor_id;sensor_type;location;lat;lon;timestamp;P1;durP1;ratioP1;P2;durP2;ratioP2
43457;SDS011;29046;54.184;18.680;2022-07-22T00:01:28;20.40;;;13.00;;
43457;SDS011;29046;54.184;18.680;2022-07-22T00:04:22;19.40;;;13.27;;
43457;SDS011;29046;54.184;18.680;2022-07-22T00:07:16;20.42;;;13.35;;
43457;SDS011;29046;54.184;18.680;2022-07-22T00:09:51;18.90;;;13.23;;
43457;SDS011;29046;54.184;18.680;2022-07-22T00:12:38;17.05;;;12.25;;
43457;SDS011;29046;54.184;18.680;2022-07-22T00:15:13;17.88;;;12.52;;
43457;SDS011;29046;54.184;18.680;2022-07-22T00:18:07;22.25;;;13.38;;
43457;SDS011;29046;54.184;18.680;2022-07-22T00:20:41;17.67;;;12.25;;
43457;SDS011;29046;54.184;18.680;2022-07-22T00:23:35;22.20;;;13.45;;
43457;SDS011;29046;54.184;18.680;2022-07-22T00:26:29;15.68;;;12.90;;
43457;SDS011;29046;54.184;18.680;2022-07-22T00:29:04;19.02;;;12.73;;
43457;SDS011;29046;54.184;18.680;2022-07-22T00:31:51;20.20;;;13.85;;
43457;SDS011;29046;54.184;18.680;2022-07-22T00:34:25;20.90;;;12.13;;
43457;SDS011;29046;54.184;18.680;2022-07-22T00:37:12;18.17;;;12.52;;
43457;SDS011;29046;54.184;18.680;2022-07-22T00:39:47;19.95;;;13.13;;
43457;SDS011;29046;54.184;18.680;2022-07-22T00:42:34;20.42;;;13.75;;
43457;SDS011;29046;54.184;18.680;2022-07-22T00:45:08;18.30;;;11.88;;
43457;SDS011;29046;54.184;18.680;2022-07-22T00:47:55;20.73;;;12.20;;
43457;SDS011;29046;54.184;18.680;2022-07-22T00:50:30;19.17;;;12.77;;
43457;SDS011;29046;54.184;18.680;2022-07-22T00:53:17;18.48;;;11.23;;
43457;SDS011;29046;54.184;18.680;2022-07-22T00:55:51;18.98;;;12.25;;
43457;SDS011;29046;54.184;18.680;2022-07-22T00:58:38;20.35;;;12.43;;
43457;SDS011;29046;54.184;18.680;2022-07-22T01:01:13;16.85;;;11.82;;
43457;SDS011;29046;54.184;18.680;2022-07-22T01:04:07;13.82;;;11.75;;
43457;SDS011;29046;54.184;18.680;2022-07-22T01:06:42;18.63;;;11.63;;
43457;SDS011;29046;54.184;18.680;2022-07-22T01:09:29;21.92;;;12.32;;
43457;SDS011;29046;54.184;18.680;2022-07-22T01:12:04;19.70;;;11.85;;
43457;SDS011;29046;54.184;18.680;2022-07-22T01:14:51;15.55;;;10.90;;
43457;SDS011;29046;54.184;18.680;2022-07-22T01:17:32;15.65;;;11.75;;
43457;SDS011;29046;54.184;18.680;2022-07-22T01:20:19;21.70;;;12.20;;
43457;SDS011;29046;54.184;18.680;2022-07-22T01:23:01;15.70;;;11.63;;
43457;SDS011;29046;54.184;18.680;2022-07-22T01:25:48;20.17;;;12.60;;
43457;SDS011;29046;54.184;18.680;2022-07-22T01:28:22;17.20;;;11.98;;
43457;SDS011;29046;54.184;18.680;2022-07-22T01:31:09;17.77;;;11.10;;
43457;SDS011;29046;54.184;18.680;2022-07-22T01:33:43;15.95;;;11.82;;
43457;SDS011;29046;54.184;18.680;2022-07-22T01:36:30;17.00;;;11.98;;
43457;SDS011;29046;54.184;18.680;2022-07-22T01:39:04;18.23;;;11.85;;
43457;SDS011;29046;54.184;18.680;2022-07-22T01:41:51;21.52;;;12.93;;
43457;SDS011;29046;54.184;18.680;2022-07-22T01:44:26;21.65;;;13.35;;
43457;SDS011;29046;54.184;18.680;2022-07-22T01:47:13;18.65;;;12.20;;
43457;SDS011;29046;54.184;18.680;2022-07-22T01:49:47;17.55;;;12.40;;
43457;SDS011;29046;54.184;18.680;2022-07-22T01:52:34;20.95;;;14.20;;
43457;SDS011;29046;54.184;18.680;2022-07-22T01:55:09;19.90;;;12.07;;
43457;SDS011;29046;54.184;18.680;2022-07-22T01:57:56;17.13;;;12.43;;
43457;SDS011;29046;54.184;18.680;2022-07-22T02:00:30;16.30;;;12.98;;
43457;SDS011;29046;54.184;18.680;2022-07-22T02:03:25;19.80;;;12.65;;
43457;SDS011;29046;54.184;18.680;2022-07-22T02:06:20;18.48;;;12.95;;
43457;SDS011;29046;54.184;18.680;2022-07-22T02:08:54;18.00;;;13.05;;
43457;SDS011;29046;54.184;18.680;2022-07-22T02:11:51;18.33;;;13.45;;
43457;SDS011;29046;54.184;18.680;2022-07-22T02:14:46;21.52;;;13.27;;
43457;SDS011;29046;54.184;18.680;2022-07-22T02:17:20;17.50;;;13.07;;
43457;SDS011;29046;54.184;18.680;2022-07-22T02:20:07;18.60;;;13.10;;
43457;SDS011;29046;54.184;18.680;2022-07-22T02:22:42;13.27;;;11.88;;
43457;SDS011;29046;54.184;18.680;2022-07-22T02:25:29;20.10;;;13.15;;
43457;SDS011;29046;54.184;18.680;2022-07-22T02:28:10;20.73;;;11.85;;
43457;SDS011;29046;54.184;18.680;2022-07-22T02:30:51;21.20;;;13.27;;
43457;SDS011;29046;54.184;18.680;2022-07-22T02:33:33;18.95;;;11.95;;
43457;SDS011;29046;54.184;18.680;2022-07-22T02:36:13;19.00;;;13.57;;
43457;SDS011;29046;54.184;18.680;2022-07-22T02:38:55;25.50;;;13.98;;
43457;SDS011;29046;54.184;18.680;2022-07-22T02:41:35;17.50;;;12.07;;
43457;SDS011;29046;54.184;18.680;2022-07-22T02:44:17;22.48;;;13.60;;
43457;SDS011;29046;54.184;18.680;2022-07-22T02:46:58;17.23;;;13.75;;
43457;SDS011;29046;54.184;18.680;2022-07-22T02:49:40;19.55;;;13.57;;
43457;SDS011;29046;54.184;18.680;2022-07-22T02:52:27;20.15;;;13.55;;
43457;SDS011;29046;54.184;18.680;2022-07-22T02:55:02;18.80;;;12.63;;
43457;SDS011;29046;54.184;18.680;2022-07-22T02:57:49;14.65;;;11.55;;
43457;SDS011;29046;54.184;18.680;2022-07-22T03:00:24;18.30;;;13.18;;
43457;SDS011;29046;54.184;18.680;2022-07-22T03:03:11;17.38;;;11.63;;
43457;SDS011;29046;54.184;18.680;2022-07-22T03:05:46;20.60;;;12.93;;
43457;SDS011;29046;54.184;18.680;2022-07-22T03:08:40;19.50;;;11.77;;
43457;SDS011;29046;54.184;18.680;2022-07-22T03:14:08;21.40;;;12.05;;
43457;SDS011;29046;54.184;18.680;2022-07-22T03:16:50;19.90;;;12.00;;
43457;SDS011;29046;54.184;18.680;2022-07-22T03:19:31;17.15;;;11.77;;
43457;SDS011;29046;54.184;18.680;2022-07-22T03:22:05;17.40;;;12.13;;
43457;SDS011;29046;54.184;18.680;2022-07-22T03:24:52;18.38;;;12.82;;
43457;SDS011;29046;54.184;18.680;2022-07-22T03:27:26;18.88;;;11.90;;
43457;SDS011;29046;54.184;18.680;2022-07-22T03:30:13;18.45;;;12.52;;
43457;SDS011;29046;54.184;18.680;2022-07-22T03:32:48;17.38;;;12.13;;
43457;SDS011;29046;54.184;18.680;2022-07-22T03:35:35;18.10;;;11.30;;
43457;SDS011;29046;54.184;18.680;2022-07-22T03:38:09;19.35;;;11.45;;
43457;SDS011;29046;54.184;18.680;2022-07-22T03:40:56;15.57;;;11.68;;
43457;SDS011;29046;54.184;18.680;2022-07-22T03:43:31;15.50;;;10.60;;
43457;SDS011;29046;54.184;18.680;2022-07-22T03:46:19;17.55;;;11.88;;
43457;SDS011;29046;54.184;18.680;2022-07-22T03:49:06;20.85;;;11.20;;
43457;SDS011;29046;54.184;18.680;2022-07-22T03:51:41;20.83;;;11.00;;
43457;SDS011;29046;54.184;18.680;2022-07-22T03:54:28;15.55;;;10.18;;
43457;SDS011;29046;54.184;18.680;2022-07-22T03:57:09;16.10;;;10.48;;
43457;SDS011;29046;54.184;18.680;2022-07-22T03:59:56;15.73;;;9.85;;
43457;SDS011;29046;54.184;18.680;2022-07-22T04:02:37;21.48;;;10.70;;
43457;SDS011;29046;54.184;18.680;2022-07-22T04:05:24;18.88;;;10.43;;
43457;SDS011;29046;54.184;18.680;2022-07-22T04:07:59;14.80;;;10.75;;
43457;SDS011;29046;54.184;18.680;2022-07-22T04:10:46;16.17;;;10.38;;
43457;SDS011;29046;54.184;18.680;2022-07-22T04:13:21;19.73;;;10.07;;
43457;SDS011;29046;54.184;18.680;2022-07-22T04:16:08;16.52;;;9.75;;
43457;SDS011;29046;54.184;18.680;2022-07-22T04:18:43;13.20;;;9.55;;
43457;SDS011;29046;54.184;18.680;2022-07-22T04:21:31;18.80;;;9.95;;
43457;SDS011;29046;54.184;18.680;2022-07-22T04:24:06;18.63;;;10.20;;
43457;SDS011;29046;54.184;18.680;2022-07-22T04:26:53;15.07;;;9.23;;
43457;SDS011;29046;54.184;18.680;2022-07-22T04:29:34;15.52;;;9.27;;
43457;SDS011;29046;54.184;18.680;2022-07-22T04:32:21;23.25;;;11.25;;
43457;SDS011;29046;54.184;18.680;2022-07-22T04:34:56;20.38;;;10.40;;
43457;SDS011;29046;54.184;18.680;2022-07-22T04:37:44;18.55;;;10.43;;
43457;SDS011;29046;54.184;18.680;2022-07-22T04:40:19;18.00;;;12.07;;
43457;SDS011;29046;54.184;18.680;2022-07-22T04:43:06;23.60;;;12.10;;
43457;SDS011;29046;54.184;18.680;2022-07-22T04:45:41;15.77;;;10.00;;
43457;SDS011;29046;54.184;18.680;2022-07-22T04:48:28;18.13;;;10.95;;
43457;SDS011;29046;54.184;18.680;2022-07-22T04:51:02;13.73;;;9.90;;
43457;SDS011;29046;54.184;18.680;2022-07-22T04:53:56;14.55;;;9.90;;
43457;SDS011;29046;54.184;18.680;2022-07-22T04:56:32;14.45;;;10.50;;
43457;SDS011;29046;54.184;18.680;2022-07-22T04:59:26;15.70;;;10.02;;
43457;SDS011;29046;54.184;18.680;2022-07-22T05:02:01;14.70;;;9.88;;
43457;SDS011;29046;54.184;18.680;2022-07-22T05:04:48;21.00;;;11.00;;
43457;SDS011;29046;54.184;18.680;2022-07-22T05:07:27;15.77;;;10.20;;
43457;SDS011;29046;54.184;18.680;2022-07-22T05:10:14;17.92;;;11.32;;
43457;SDS011;29046;54.184;18.680;2022-07-22T05:12:48;17.83;;;10.93;;
43457;SDS011;29046;54.184;18.680;2022-07-22T05:15:35;22.10;;;10.57;;
43457;SDS011;29046;54.184;18.680;2022-07-22T05:18:09;19.05;;;10.45;;
43457;SDS011;29046;54.184;18.680;2022-07-22T05:20:56;17.85;;;10.00;;
43457;SDS011;29046;54.184;18.680;2022-07-22T05:23:31;14.63;;;9.95;;
43457;SDS011;29046;54.184;18.680;2022-07-22T05:26:18;18.92;;;9.45;;
43457;SDS011;29046;54.184;18.680;2022-07-22T05:28:52;15.43;;;10.18;;
43457;SDS011;29046;54.184;18.680;2022-07-22T05:31:39;13.40;;;9.93;;
43457;SDS011;29046;54.184;18.680;2022-07-22T05:34:13;15.63;;;9.75;;
43457;SDS011;29046;54.184;18.680;2022-07-22T05:37:00;18.17;;;9.57;;
43457;SDS011;29046;54.184;18.680;2022-07-22T05:39:35;15.35;;;9.80;;
43457;SDS011;29046;54.184;18.680;2022-07-22T05:42:22;16.73;;;10.02;;
43457;SDS011;29046;54.184;18.680;2022-07-22T05:44:56;15.45;;;9.70;;
43457;SDS011;29046;54.184;18.680;2022-07-22T05:47:50;14.73;;;8.82;;
43457;SDS011;29046;54.184;18.680;2022-07-22T05:50:24;17.05;;;9.60;;
43457;SDS011;29046;54.184;18.680;2022-07-22T05:53:11;14.68;;;9.70;;
43457;SDS011;29046;54.184;18.680;2022-07-22T05:55:46;16.83;;;9.43;;
43457;SDS011;29046;54.184;18.680;2022-07-22T05:58:45;15.07;;;10.23;;
43457;SDS011;29046;54.184;18.680;2022-07-22T06:01:20;11.73;;;8.90;;
43457;SDS011;29046;54.184;18.680;2022-07-22T06:04:14;11.35;;;8.50;;
43457;SDS011;29046;54.184;18.680;2022-07-22T06:06:48;15.82;;;9.00;;
43457;SDS011;29046;54.184;18.680;2022-07-22T06:09:50;13.73;;;8.77;;
43457;SDS011;29046;54.184;18.680;2022-07-22T06:12:44;13.48;;;8.98;;
43457;SDS011;29046;54.184;18.680;2022-07-22T06:15:38;11.02;;;8.93;;
43457;SDS011;29046;54.184;18.680;2022-07-22T06:18:12;17.80;;;9.73;;
43457;SDS011;29046;54.184;18.680;2022-07-22T06:21:06;19.30;;;9.20;;
43457;SDS011;29046;54.184;18.680;2022-07-22T06:23:41;18.50;;;10.68;;
43457;SDS011;29046;54.184;18.680;2022-07-22T06:26:28;17.52;;;11.35;;
43457;SDS011;29046;54.184;18.680;2022-07-22T06:29:02;13.60;;;10.00;;
43457;SDS011;29046;54.184;18.680;2022-07-22T06:31:49;16.27;;;11.45;;
43457;SDS011;29046;54.184;18.680;2022-07-22T06:34:23;19.98;;;12.90;;
43457;SDS011;29046;54.184;18.680;2022-07-22T06:37:11;21.52;;;12.02;;
43457;SDS011;29046;54.184;18.680;2022-07-22T06:39:55;21.95;;;12.05;;
43457;SDS011;29046;54.184;18.680;2022-07-22T06:42:42;15.35;;;11.82;;
43457;SDS011;29046;54.184;18.680;2022-07-22T06:45:16;18.60;;;12.20;;
43457;SDS011;29046;54.184;18.680;2022-07-22T06:48:03;19.70;;;11.88;;
43457;SDS011;29046;54.184;18.680;2022-07-22T06:50:37;17.30;;;13.68;;
43457;SDS011;29046;54.184;18.680;2022-07-22T06:53:32;26.20;;;13.20;;
43457;SDS011;29046;54.184;18.680;2022-07-22T06:56:06;25.40;;;17.63;;
43457;SDS011;29046;54.184;18.680;2022-07-22T06:58:55;23.90;;;12.73;;
43457;SDS011;29046;54.184;18.680;2022-07-22T07:01:29;18.70;;;12.07;;
43457;SDS011;29046;54.184;18.680;2022-07-22T07:04:16;19.13;;;14.05;;
43457;SDS011;29046;54.184;18.680;2022-07-22T07:06:52;22.98;;;14.35;;
43457;SDS011;29046;54.184;18.680;2022-07-22T07:09:39;19.20;;;14.63;;
43457;SDS011;29046;54.184;18.680;2022-07-22T07:12:13;16.88;;;12.80;;
43457;SDS011;29046;54.184;18.680;2022-07-22T07:15:13;26.55;;;17.40;;
43457;SDS011;29046;54.184;18.680;2022-07-22T07:17:52;27.08;;;17.73;;
43457;SDS011;29046;54.184;18.680;2022-07-22T07:20:41;24.55;;;15.23;;
43457;SDS011;29046;54.184;18.680;2022-07-22T07:23:15;28.33;;;15.68;;
43457;SDS011;29046;54.184;18.680;2022-07-22T07:26:02;22.40;;;15.65;;
43457;SDS011;29046;54.184;18.680;2022-07-22T07:28:37;25.98;;;14.32;;
43457;SDS011;29046;54.184;18.680;2022-07-22T07:31:24;22.90;;;15.40;;
43457;SDS011;29046;54.184;18.680;2022-07-22T07:34:00;30.35;;;16.25;;
43457;SDS011;29046;54.184;18.680;2022-07-22T07:36:47;29.75;;;18.40;;
43457;SDS011;29046;54.184;18.680;2022-07-22T07:39:21;27.88;;;16.95;;
43457;SDS011;29046;54.184;18.680;2022-07-22T07:42:09;26.08;;;17.88;;
43457;SDS011;29046;54.184;18.680;2022-07-22T07:44:43;24.00;;;17.17;;
43457;SDS011;29046;54.184;18.680;2022-07-22T07:47:30;29.25;;;18.35;;
43457;SDS011;29046;54.184;18.680;2022-07-22T07:50:05;21.13;;;18.80;;
43457;SDS011;29046;54.184;18.680;2022-07-22T07:52:52;22.60;;;16.95;;
43457;SDS011;29046;54.184;18.680;2022-07-22T07:55:27;19.58;;;16.95;;
43457;SDS011;29046;54.184;18.680;2022-07-22T07:58:18;27.95;;;18.67;;
43457;SDS011;29046;54.184;18.680;2022-07-22T08:00:52;25.75;;;16.20;;
43457;SDS011;29046;54.184;18.680;2022-07-22T08:03:39;21.92;;;16.55;;
43457;SDS011;29046;54.184;18.680;2022-07-22T08:06:14;22.40;;;16.50;;
43457;SDS011;29046;54.184;18.680;2022-07-22T08:09:01;19.92;;;16.27;;
43457;SDS011;29046;54.184;18.680;2022-07-22T08:11:37;24.60;;;15.15;;
43457;SDS011;29046;54.184;18.680;2022-07-22T08:14:31;20.10;;;16.35;;
43457;SDS011;29046;54.184;18.680;2022-07-22T08:17:24;23.77;;;16.35;;
43457;SDS011;29046;54.184;18.680;2022-07-22T08:20:00;22.80;;;16.85;;
43457;SDS011;29046;54.184;18.680;2022-07-22T08:23:00;21.20;;;15.65;;
43457;SDS011;29046;54.184;18.680;2022-07-22T08:25:55;24.10;;;17.30;;
43457;SDS011;29046;54.184;18.680;2022-07-22T08:28:30;21.15;;;16.40;;
43457;SDS011;29046;54.184;18.680;2022-07-22T08:31:18;24.15;;;16.55;;
43457;SDS011;29046;54.184;18.680;2022-07-22T08:33:51;23.05;;;15.77;;
43457;SDS011;29046;54.184;18.680;2022-07-22T08:36:46;22.60;;;16.92;;
43457;SDS011;29046;54.184;18.680;2022-07-22T08:39:40;18.65;;;15.40;;
43457;SDS011;29046;54.184;18.680;2022-07-22T08:42:14;18.85;;;15.85;;
43457;SDS011;29046;54.184;18.680;2022-07-22T08:45:02;21.23;;;16.25;;
43457;SDS011;29046;54.184;18.680;2022-07-22T08:47:44;16.42;;;14.68;;
43457;SDS011;29046;54.184;18.680;2022-07-22T08:50:39;23.55;;;17.10;;
43457;SDS011;29046;54.184;18.680;2022-07-22T08:53:33;19.58;;;15.25;;
43457;SDS011;29046;54.184;18.680;2022-07-22T08:56:07;20.60;;;16.13;;
43457;SDS011;29046;54.184;18.680;2022-07-22T08:58:54;23.10;;;16.55;;
43457;SDS011;29046;54.184;18.680;2022-07-22T09:01:28;17.05;;;14.40;;
43457;SDS011;29046;54.184;18.680;2022-07-22T09:04:15;19.85;;;13.77;;
43457;SDS011;29046;54.184;18.680;2022-07-22T09:06:49;18.15;;;14.38;;
43457;SDS011;29046;54.184;18.680;2022-07-22T09:09:36;15.93;;;10.73;;
43457;SDS011;29046;54.184;18.680;2022-07-22T09:12:11;14.10;;;9.88;;
43457;SDS011;29046;54.184;18.680;2022-07-22T09:15:06;12.15;;;10.00;;
43457;SDS011;29046;54.184;18.680;2022-07-22T09:17:40;11.23;;;8.50;;
43457;SDS011;29046;54.184;18.680;2022-07-22T09:20:42;13.70;;;8.90;;
43457;SDS011;29046;54.184;18.680;2022-07-22T09:23:18;13.38;;;10.60;;
43457;SDS011;29046;54.184;18.680;2022-07-22T09:26:06;11.40;;;9.02;;
43457;SDS011;29046;54.184;18.680;2022-07-22T09:28:39;14.07;;;9.10;;
43457;SDS011;29046;54.184;18.680;2022-07-22T09:31:43;11.10;;;8.57;;
43457;SDS011;29046;54.184;18.680;2022-07-22T09:34:31;10.65;;;8.38;;
43457;SDS011;29046;54.184;18.680;2022-07-22T09:37:18;10.70;;;7.35;;
43457;SDS011;29046;54.184;18.680;2022-07-22T09:39:52;9.55;;;7.38;;
43457;SDS011;29046;54.184;18.680;2022-07-22T09:42:46;9.85;;;6.55;;
43457;SDS011;29046;54.184;18.680;2022-07-22T09:45:21;8.70;;;7.40;;
43457;SDS011;29046;54.184;18.680;2022-07-22T09:48:10;9.18;;;6.35;;
43457;SDS011;29046;54.184;18.680;2022-07-22T09:50:45;10.05;;;6.97;;
43457;SDS011;29046;54.184;18.680;2022-07-22T09:53:33;10.48;;;6.22;;
43457;SDS011;29046;54.184;18.680;2022-07-22T09:56:07;9.48;;;6.13;;
43457;SDS011;29046;54.184;18.680;2022-07-22T09:58:55;9.55;;;6.10;;
43457;SDS011;29046;54.184;18.680;2022-07-22T10:01:30;9.77;;;6.15;;
43457;SDS011;29046;54.184;18.680;2022-07-22T10:04:18;8.63;;;6.45;;
43457;SDS011;29046;54.184;18.680;2022-07-22T10:07:00;7.75;;;6.10;;
43457;SDS011;29046;54.184;18.680;2022-07-22T10:09:42;9.38;;;6.20;;
43457;SDS011;29046;54.184;18.680;2022-07-22T10:12:25;7.82;;;6.10;;
43457;SDS011;29046;54.184;18.680;2022-07-22T10:15:06;11.38;;;7.07;;
43457;SDS011;29046;54.184;18.680;2022-07-22T10:17:49;10.88;;;6.20;;
43457;SDS011;29046;54.184;18.680;2022-07-22T10:20:31;11.73;;;6.43;;
43457;SDS011;29046;54.184;18.680;2022-07-22T10:23:12;8.15;;;5.93;;
43457;SDS011;29046;54.184;18.680;2022-07-22T10:25:53;9.23;;;7.35;;
43457;SDS011;29046;54.184;18.680;2022-07-22T10:28:36;10.23;;;6.25;;
43457;SDS011;29046;54.184;18.680;2022-07-22T10:31:24;9.82;;;6.63;;
43457;SDS011;29046;54.184;18.680;2022-07-22T10:33:58;9.73;;;6.10;;
43457;SDS011;29046;54.184;18.680;2022-07-22T10:36:47;11.30;;;6.85;;
43457;SDS011;29046;54.184;18.680;2022-07-22T10:39:20;13.10;;;7.60;;
43457;SDS011;29046;54.184;18.680;2022-07-22T10:42:08;9.40;;;7.80;;
43457;SDS011;29046;54.184;18.680;2022-07-22T10:44:48;11.65;;;7.97;;
43457;SDS011;29046;54.184;18.680;2022-07-22T10:50:45;10.25;;;7.90;;
43457;SDS011;29046;54.184;18.680;2022-07-22T10:56:33;9.02;;;7.05;;
43457;SDS011;29046;54.184;18.680;2022-07-22T10:59:21;8.55;;;7.70;;
43457;SDS011;29046;54.184;18.680;2022-07-22T11:02:03;10.77;;;7.97;;
43457;SDS011;29046;54.184;18.680;2022-07-22T11:04:44;11.65;;;8.00;;
43457;SDS011;29046;54.184;18.680;2022-07-22T11:07:24;9.98;;;8.35;;
43457;SDS011;29046;54.184;18.680;2022-07-22T11:10:14;9.95;;;8.10;;
43457;SDS011;29046;54.184;18.680;2022-07-22T11:12:53;11.07;;;8.30;;
43457;SDS011;29046;54.184;18.680;2022-07-22T11:15:44;9.15;;;7.78;;
43457;SDS011;29046;54.184;18.680;2022-07-22T11:18:17;7.97;;;6.95;;
43457;SDS011;29046;54.184;18.680;2022-07-22T11:21:05;10.50;;;7.53;;
43457;SDS011;29046;54.184;18.680;2022-07-22T11:23:48;11.50;;;7.80;;
43457;SDS011;29046;54.184;18.680;2022-07-22T11:26:41;9.60;;;8.63;;
43457;SDS011;29046;54.184;18.680;2022-07-22T11:29:18;10.10;;;7.95;;
43457;SDS011;29046;54.184;18.680;2022-07-22T11:32:25;9.27;;;7.88;;
43457;SDS011;29046;54.184;18.680;2022-07-22T11:35:02;9.13;;;7.88;;
43457;SDS011;29046;54.184;18.680;2022-07-22T11:37:56;9.38;;;8.23;;
43457;SDS011;29046;54.184;18.680;2022-07-22T11:40:33;9.20;;;7.38;;
43457;SDS011;29046;54.184;18.680;2022-07-22T11:43:21;8.52;;;7.45;;
43457;SDS011;29046;54.184;18.680;2022-07-22T11:45:56;9.63;;;7.93;;
43457;SDS011;29046;54.184;18.680;2022-07-22T11:48:43;9.23;;;8.18;;
43457;SDS011;29046;54.184;18.680;2022-07-22T11:51:17;11.57;;;8.60;;
43457;SDS011;29046;54.184;18.680;2022-07-22T11:54:05;9.38;;;8.50;;
43457;SDS011;29046;54.184;18.680;2022-07-22T11:56:39;10.88;;;8.38;;
43457;SDS011;29046;54.184;18.680;2022-07-22T11:59:30;10.15;;;8.23;;
43457;SDS011;29046;54.184;18.680;2022-07-22T12:02:03;9.93;;;7.45;;
43457;SDS011;29046;54.184;18.680;2022-07-22T12:04:53;9.50;;;7.90;;
43457;SDS011;29046;54.184;18.680;2022-07-22T12:07:36;11.15;;;7.15;;
43457;SDS011;29046;54.184;18.680;2022-07-22T12:10:28;8.27;;;6.43;;
43457;SDS011;29046;54.184;18.680;2022-07-22T12:13:02;11.52;;;7.43;;
43457;SDS011;29046;54.184;18.680;2022-07-22T12:15:50;10.40;;;7.38;;
43457;SDS011;29046;54.184;18.680;2022-07-22T12:18:25;9.00;;;8.00;;
43457;SDS011;29046;54.184;18.680;2022-07-22T12:21:13;10.77;;;8.75;;
43457;SDS011;29046;54.184;18.680;2022-07-22T12:23:55;10.23;;;9.13;;
43457;SDS011;29046;54.184;18.680;2022-07-22T12:26:50;11.90;;;8.13;;
43457;SDS011;29046;54.184;18.680;2022-07-22T12:29:45;9.52;;;8.52;;
43457;SDS011;29046;54.184;18.680;2022-07-22T12:35:17;10.43;;;8.57;;
43457;SDS011;29046;54.184;18.680;2022-07-22T12:38:11;9.25;;;8.00;;
43457;SDS011;29046;54.184;18.680;2022-07-22T12:40:44;13.05;;;8.70;;
43457;SDS011;29046;54.184;18.680;2022-07-22T12:43:39;10.38;;;7.30;;
43457;SDS011;29046;54.184;18.680;2022-07-22T12:46:33;10.02;;;7.00;;
43457;SDS011;29046;54.184;18.680;2022-07-22T12:49:38;8.50;;;7.10;;
43457;SDS011;29046;54.184;18.680;2022-07-22T12:52:12;8.52;;;7.20;;
43457;SDS011;29046;54.184;18.680;2022-07-22T12:55:00;9.00;;;7.10;;
43457;SDS011;29046;54.184;18.680;2022-07-22T12:57:54;10.25;;;7.22;;
43457;SDS011;29046;54.184;18.680;2022-07-22T13:00:51;8.20;;;6.70;;
43457;SDS011;29046;54.184;18.680;2022-07-22T13:03:27;7.45;;;6.80;;
43457;SDS011;29046;54.184;18.680;2022-07-22T13:06:16;10.85;;;6.88;;
43457;SDS011;29046;54.184;18.680;2022-07-22T13:08:50;8.02;;;7.22;;
43457;SDS011;29046;54.184;18.680;2022-07-22T13:11:37;7.68;;;6.78;;
43457;SDS011;29046;54.184;18.680;2022-07-22T13:14:16;7.43;;;6.72;;
43457;SDS011;29046;54.184;18.680;2022-07-22T13:17:04;10.45;;;6.72;;
43457;SDS011;29046;54.184;18.680;2022-07-22T13:19:37;8.00;;;6.80;;
43457;SDS011;29046;54.184;18.680;2022-07-22T13:22:25;7.50;;;6.78;;
43457;SDS011;29046;54.184;18.680;2022-07-22T13:24:58;7.20;;;6.50;;
43457;SDS011;29046;54.184;18.680;2022-07-22T13:27:46;7.60;;;6.53;;
43457;SDS011;29046;54.184;18.680;2022-07-22T13:30:26;6.97;;;6.22;;
43457;SDS011;29046;54.184;18.680;2022-07-22T13:33:14;7.20;;;6.53;;
43457;SDS011;29046;54.184;18.680;2022-07-22T13:35:49;6.03;;;5.35;;
43457;SDS011;29046;54.184;18.680;2022-07-22T13:38:37;6.15;;;5.03;;
43457;SDS011;29046;54.184;18.680;2022-07-22T13:41:11;6.47;;;5.15;;
43457;SDS011;29046;54.184;18.680;2022-07-22T13:43:59;6.97;;;4.95;;
43457;SDS011;29046;54.184;18.680;2022-07-22T13:46:41;5.68;;;5.05;;
43457;SDS011;29046;54.184;18.680;2022-07-22T13:49:29;7.57;;;4.85;;
43457;SDS011;29046;54.184;18.680;2022-07-22T13:52:05;5.72;;;4.93;;
43457;SDS011;29046;54.184;18.680;2022-07-22T13:54:53;6.18;;;4.95;;
43457;SDS011;29046;54.184;18.680;2022-07-22T13:57:34;6.20;;;5.30;;
43457;SDS011;29046;54.184;18.680;2022-07-22T14:00:22;7.82;;;5.45;;
43457;SDS011;29046;54.184;18.680;2022-07-22T14:03:04;6.07;;;5.47;;
43457;SDS011;29046;54.184;18.680;2022-07-22T14:05:45;10.05;;;6.28;;
43457;SDS011;29046;54.184;18.680;2022-07-22T14:08:25;6.68;;;5.20;;
43457;SDS011;29046;54.184;18.680;2022-07-22T14:11:13;8.48;;;5.10;;
43457;SDS011;29046;54.184;18.680;2022-07-22T14:13:47;5.85;;;5.22;;
43457;SDS011;29046;54.184;18.680;2022-07-22T14:16:35;8.00;;;5.82;;
43457;SDS011;29046;54.184;18.680;2022-07-22T14:19:29;8.52;;;5.70;;
43457;SDS011;29046;54.184;18.680;2022-07-22T14:22:20;7.97;;;6.10;;
43457;SDS011;29046;54.184;18.680;2022-07-22T14:24:54;6.72;;;5.78;;
43457;SDS011;29046;54.184;18.680;2022-07-22T14:27:42;10.57;;;6.78;;
43457;SDS011;29046;54.184;18.680;2022-07-22T14:30:16;7.28;;;6.05;;
43457;SDS011;29046;54.184;18.680;2022-07-22T14:33:04;6.78;;;6.00;;
43457;SDS011;29046;54.184;18.680;2022-07-22T14:35:38;10.32;;;7.25;;
43457;SDS011;29046;54.184;18.680;2022-07-22T14:38:26;12.48;;;8.82;;
43457;SDS011;29046;54.184;18.680;2022-07-22T14:41:00;17.35;;;9.13;;
43457;SDS011;29046;54.184;18.680;2022-07-22T14:43:48;17.52;;;9.70;;
43457;SDS011;29046;54.184;18.680;2022-07-22T14:46:22;9.00;;;7.20;;
43457;SDS011;29046;54.184;18.680;2022-07-22T14:49:10;14.07;;;9.48;;
43457;SDS011;29046;54.184;18.680;2022-07-22T14:51:47;13.10;;;8.40;;
43457;SDS011;29046;54.184;18.680;2022-07-22T14:54:35;16.67;;;8.68;;
43457;SDS011;29046;54.184;18.680;2022-07-22T14:57:09;13.82;;;8.57;;
43457;SDS011;29046;54.184;18.680;2022-07-22T14:59:59;9.52;;;8.23;;
43457;SDS011;29046;54.184;18.680;2022-07-22T15:02:33;11.32;;;8.50;;
43457;SDS011;29046;54.184;18.680;2022-07-22T15:05:21;43.53;;;27.40;;
43457;SDS011;29046;54.184;18.680;2022-07-22T15:10:45;17.88;;;10.38;;
43457;SDS011;29046;54.184;18.680;2022-07-22T15:13:19;18.00;;;11.48;;
43457;SDS011;29046;54.184;18.680;2022-07-22T15:16:14;18.80;;;14.25;;
43457;SDS011;29046;54.184;18.680;2022-07-22T15:19:08;41.60;;;23.13;;
43457;SDS011;29046;54.184;18.680;2022-07-22T15:21:42;16.98;;;11.02;;
43457;SDS011;29046;54.184;18.680;2022-07-22T15:24:30;23.02;;;12.63;;
43457;SDS011;29046;54.184;18.680;2022-07-22T15:27:04;16.00;;;9.68;;
43457;SDS011;29046;54.184;18.680;2022-07-22T15:29:52;32.55;;;16.10;;
43457;SDS011;29046;54.184;18.680;2022-07-22T15:32:26;20.45;;;12.48;;
43457;SDS011;29046;54.184;18.680;2022-07-22T15:35:14;18.42;;;10.55;;
43457;SDS011;29046;54.184;18.680;2022-07-22T15:37:47;38.42;;;17.83;;
43457;SDS011;29046;54.184;18.680;2022-07-22T15:40:35;34.60;;;19.25;;
43457;SDS011;29046;54.184;18.680;2022-07-22T15:43:09;26.95;;;15.82;;
43457;SDS011;29046;54.184;18.680;2022-07-22T15:46:04;25.75;;;14.68;;
43457;SDS011;29046;54.184;18.680;2022-07-22T15:48:59;21.65;;;13.55;;
43457;SDS011;29046;54.184;18.680;2022-07-22T15:51:33;21.25;;;13.13;;
43457;SDS011;29046;54.184;18.680;2022-07-22T15:54:28;30.83;;;17.90;;
43457;SDS011;29046;54.184;18.680;2022-07-22T15:57:27;32.72;;;16.00;;
43457;SDS011;29046;54.184;18.680;2022-07-22T16:00:19;18.10;;;11.70;;
43457;SDS011;29046;54.184;18.680;2022-07-22T16:03:07;25.27;;;14.30;;